Highland Lake, Alabama
Current Conditions -  °F | °C
As of 3:35 PM on Sunday 23 Nov 2014 (Local Time) from KGAD Reporting Station
Overcast Overcast  
Wind Chill: 59°   Ceiling: 800
Heat Index: 59°   Visibility: 10mi
Dew Point: 55°   Wind: 6mph
Humidity: 88%   Direction: 110°ESE
Pressure: 29.55"   Gusts: NA
Location:  33.8959°N, 86.4894°W
Report Text: KGAD 232135Z 11005KT 10SM BKN008 OVC015 15/13 A2955 RMK AO1 P0005
Loading
Personal Weather Stations






























Interactive Weather Map New forecast layout! Learn more

10-Day Weather Forecast

Advertisements
Track Severe Weather on mobile